createdAt,value
2019-04-28T00:01:58.909Z,4.80
2019-04-28T00:04:29.276Z,4.80
2019-04-28T00:07:02.617Z,4.80
2019-04-28T00:09:35.416Z,4.90
2019-04-28T00:12:09.097Z,4.90
2019-04-28T00:14:45.639Z,5.00
2019-04-28T00:17:21.744Z,5.10
2019-04-28T00:19:54.426Z,5.20
2019-04-28T00:22:46.171Z,5.30
2019-04-28T00:25:21.564Z,5.30
2019-04-28T00:27:51.793Z,5.40
2019-04-28T00:30:22.265Z,5.40
2019-04-28T00:32:58.552Z,5.40
2019-04-28T00:35:31.878Z,5.40
2019-04-28T00:38:06.388Z,5.40
2019-04-28T00:40:48.481Z,5.40
2019-04-28T00:43:24.857Z,5.40
2019-04-28T00:45:58.186Z,5.40
2019-04-28T00:48:28.310Z,5.40
2019-04-28T00:50:59.339Z,5.40
2019-04-28T00:53:31.074Z,5.50
2019-04-28T00:56:02.183Z,5.40
2019-04-28T00:58:32.495Z,5.40
2019-04-28T01:03:02.172Z,5.50
2019-04-28T01:05:32.865Z,5.40
2019-04-28T01:08:10.983Z,5.40
2019-04-28T01:10:44.176Z,5.40
2019-04-28T01:13:17.519Z,5.40
2019-04-28T01:16:06.102Z,5.30
2019-04-28T01:18:42.467Z,5.30
2019-04-28T01:21:12.738Z,5.30
2019-04-28T01:23:43.257Z,5.10
2019-04-28T01:26:14.900Z,5.00
2019-04-28T01:28:45.011Z,4.90
2019-04-28T01:31:29.475Z,4.90
2019-04-28T01:34:24.289Z,4.80
2019-04-28T01:36:54.634Z,4.70
2019-04-28T01:39:24.745Z,4.70
2019-04-28T01:41:55.808Z,4.60
2019-04-28T01:44:29.640Z,4.60
2019-04-28T01:47:06.616Z,4.60
2019-04-28T01:49:40.619Z,4.60
2019-04-28T01:52:11.157Z,4.70
2019-04-28T01:54:41.324Z,4.70
2019-04-28T01:57:11.802Z,4.70
2019-04-28T01:59:42.585Z,4.80
2019-04-28T02:02:12.930Z,4.80
2019-04-28T02:04:43.193Z,4.80
2019-04-28T02:07:13.460Z,4.80
2019-04-28T02:09:43.669Z,4.90
2019-04-28T02:12:13.849Z,4.90
2019-04-28T02:14:44.195Z,4.90
2019-04-28T02:17:14.526Z,4.90
2019-04-28T02:19:51.522Z,5.00
2019-04-28T02:22:40.124Z,5.00
2019-04-28T02:25:10.768Z,5.00
2019-04-28T02:27:40.965Z,5.00
2019-04-28T02:30:11.926Z,5.00
2019-04-28T02:32:45.890Z,5.00
2019-04-28T02:35:22.320Z,5.00
2019-04-28T02:37:53.308Z,5.00
2019-04-28T02:40:32.830Z,5.00
2019-04-28T02:43:12.892Z,5.00
2019-04-28T02:45:43.637Z,4.90
2019-04-28T02:51:10.833Z,5.00
2019-04-28T02:53:45.522Z,4.90
2019-04-28T02:56:15.741Z,4.90
2019-04-28T02:58:52.799Z,4.90
2019-04-28T03:02:55.108Z,4.90
2019-04-28T03:05:26.227Z,4.80
2019-04-28T03:07:56.717Z,4.80
2019-04-28T03:10:31.012Z,4.80
2019-04-28T03:13:04.247Z,4.70
2019-04-28T03:15:34.569Z,4.70
2019-04-28T03:18:08.175Z,4.60
2019-04-28T03:20:38.439Z,4.50
2019-04-28T03:23:11.958Z,4.60
2019-04-28T03:25:50.608Z,4.50
2019-04-28T03:28:52.586Z,4.50
2019-04-28T03:32:14.145Z,4.50
2019-04-28T03:34:23.502Z,4.50
2019-04-28T03:36:52.170Z,4.50
2019-04-28T03:39:22.421Z,4.50
2019-04-28T03:41:52.606Z,4.40
2019-04-28T03:44:22.986Z,4.40
2019-04-28T03:46:54.910Z,4.50
2019-04-28T03:49:32.356Z,4.40
2019-04-28T03:52:10.873Z,4.40
2019-04-28T03:54:44.173Z,4.40
2019-04-28T03:57:23.235Z,4.40
2019-04-28T03:59:57.308Z,4.40
2019-04-28T04:02:31.210Z,4.40
2019-04-28T04:05:05.232Z,4.30
2019-04-28T04:07:42.862Z,4.30
2019-04-28T04:10:20.728Z,4.20
2019-04-28T04:12:55.773Z,4.20
2019-04-28T04:15:50.568Z,4.20
2019-04-28T04:18:25.708Z,4.20
2019-04-28T04:20:55.997Z,4.20
2019-04-28T04:23:26.402Z,4.10
2019-04-28T04:25:56.577Z,4.10
2019-04-28T04:28:26.732Z,4.10
2019-04-28T04:30:57.118Z,4.10
2019-04-28T04:33:32.958Z,4.10
2019-04-28T04:36:03.504Z,4.10
2019-04-28T04:38:46.092Z,4.20
2019-04-28T04:41:17.271Z,4.20
2019-04-28T04:43:51.490Z,4.30
2019-04-28T04:46:24.171Z,4.40
2019-04-28T04:48:54.483Z,4.50
2019-04-28T04:51:24.600Z,4.60
2019-04-28T04:53:54.849Z,4.70
2019-04-28T04:56:25.040Z,4.90
2019-04-28T04:58:55.359Z,5.00
2019-04-28T05:03:10.650Z,5.20
2019-04-28T05:05:41.971Z,5.30
2019-04-28T05:08:15.599Z,5.30
2019-04-28T05:10:45.852Z,5.30
2019-04-28T05:13:16.118Z,5.40
2019-04-28T05:15:46.351Z,5.40
2019-04-28T05:18:20.015Z,5.40
2019-04-28T05:20:56.387Z,5.40
2019-04-28T05:23:40.093Z,5.30
2019-04-28T05:26:11.356Z,5.20
2019-04-28T05:28:51.585Z,5.20
2019-04-28T05:31:24.096Z,5.20
2019-04-28T05:33:52.458Z,5.20
2019-04-28T05:36:24.974Z,5.30
2019-04-28T05:38:55.273Z,5.50
2019-04-28T05:41:25.624Z,5.60
2019-04-28T05:43:56.014Z,6.30
2019-04-28T05:46:26.629Z,7.60
2019-04-28T05:49:10.265Z,8.90
2019-04-28T05:51:42.722Z,9.90
2019-04-28T05:54:31.458Z,10.60
2019-04-28T05:57:53.299Z,11.30
2019-04-28T06:00:49.975Z,11.90
2019-04-28T06:03:20.814Z,12.30
2019-04-28T06:06:06.372Z,13.20
2019-04-28T06:09:04.055Z,13.30
2019-04-28T06:11:35.976Z,13.60
2019-04-28T06:14:06.615Z,14.10
2019-04-28T06:16:37.842Z,14.00
2019-04-28T06:19:09.726Z,13.10
2019-04-28T06:21:49.354Z,12.00
2019-04-28T06:24:28.890Z,11.10
2019-04-28T06:27:01.625Z,10.40
2019-04-28T06:29:33.520Z,9.80
2019-04-28T06:32:04.205Z,9.40
2019-04-28T06:34:43.001Z,9.30
2019-04-28T06:37:13.461Z,9.30
2019-04-28T06:39:43.954Z,9.30
2019-04-28T06:42:14.484Z,9.50
2019-04-28T06:44:48.271Z,9.40
2019-04-28T06:47:18.804Z,9.40
2019-04-28T06:49:49.431Z,9.40
2019-04-28T06:52:23.367Z,9.30
2019-04-28T06:54:59.996Z,9.40
2019-04-28T06:57:30.756Z,9.30
2019-04-28T07:03:04.074Z,9.80
2019-04-28T07:05:40.560Z,10.00
2019-04-28T07:08:17.076Z,10.20
2019-04-28T07:10:55.329Z,10.30
2019-04-28T07:13:34.623Z,10.10
2019-04-28T07:16:05.447Z,9.70
2019-04-28T07:18:42.768Z,9.30
2019-04-28T07:21:19.323Z,9.20
2019-04-28T07:23:49.974Z,9.10
2019-04-28T07:26:20.652Z,9.10
2019-04-28T07:28:51.086Z,8.90
2019-04-28T07:31:23.331Z,9.00
2019-04-28T07:33:54.203Z,9.00
2019-04-28T07:36:24.735Z,9.00
2019-04-28T07:38:55.122Z,9.20
2019-04-28T07:41:26.355Z,9.30
2019-04-28T07:44:03.030Z,9.10
2019-04-28T07:46:33.628Z,9.10
2019-04-28T07:49:04.204Z,9.30
2019-04-28T07:51:46.555Z,9.70
2019-04-28T07:54:18.736Z,10.10
2019-04-28T07:56:56.173Z,9.60
2019-04-28T07:59:32.763Z,8.80
2019-04-28T08:02:14.920Z,8.30
2019-04-28T08:04:52.249Z,7.80
2019-04-28T08:07:22.849Z,7.60
2019-04-28T08:09:53.165Z,7.40
2019-04-28T08:12:24.641Z,7.40
2019-04-28T08:14:57.395Z,7.40
2019-04-28T08:17:27.839Z,7.80
2019-04-28T08:19:58.244Z,9.10
2019-04-28T08:22:29.352Z,9.40
2019-04-28T08:25:00.443Z,9.40
2019-04-28T08:27:34.554Z,9.60
2019-04-28T08:30:05.218Z,9.80
2019-04-28T08:32:44.835Z,9.90
2019-04-28T08:35:15.428Z,10.10
2019-04-28T08:37:49.195Z,10.60
2019-04-28T08:40:28.087Z,10.90
2019-04-28T08:43:02.468Z,11.00
2019-04-28T08:45:45.202Z,11.20
2019-04-28T08:48:24.359Z,11.40
2019-04-28T08:50:54.691Z,11.70
2019-04-28T08:53:26.323Z,12.00
2019-04-28T08:56:02.690Z,12.00
2019-04-28T08:58:45.593Z,12.00
2019-04-28T09:03:06.454Z,11.40
2019-04-28T09:05:54.146Z,10.90
2019-04-28T09:08:34.379Z,10.50
2019-04-28T09:11:06.645Z,10.40
2019-04-28T09:13:38.061Z,10.20
2019-04-28T09:16:08.596Z,10.00
2019-04-28T09:18:39.789Z,10.10
2019-04-28T09:21:16.648Z,10.00
2019-04-28T09:23:48.506Z,10.00
2019-04-28T09:26:19.252Z,10.10
2019-04-28T09:28:52.776Z,10.10
2019-04-28T09:31:24.013Z,10.30
2019-04-28T09:33:55.372Z,10.50
2019-04-28T09:36:33.208Z,10.40
2019-04-28T09:39:05.955Z,10.70
2019-04-28T09:41:41.963Z,11.00
2019-04-28T09:44:17.157Z,11.30
2019-04-28T09:46:49.167Z,11.00
2019-04-28T09:49:26.698Z,11.30
2019-04-28T09:52:05.197Z,11.80
2019-04-28T09:54:41.365Z,12.20
2019-04-28T09:57:12.208Z,12.80
2019-04-28T09:59:43.411Z,13.20
2019-04-28T10:02:26.711Z,13.50
2019-04-28T10:04:58.834Z,13.50
2019-04-28T10:07:34.753Z,13.40
2019-04-28T10:10:28.190Z,12.90
2019-04-28T10:13:05.038Z,12.40
2019-04-28T10:15:42.260Z,11.80
2019-04-28T10:18:14.418Z,11.20
2019-04-28T10:20:54.620Z,10.60
2019-04-28T10:23:26.514Z,10.20
2019-04-28T10:26:10.010Z,9.70
2019-04-28T10:28:44.333Z,9.40
2019-04-28T10:31:18.737Z,9.10
2019-04-28T10:33:56.745Z,9.10
2019-04-28T10:36:30.278Z,9.20
2019-04-28T10:39:25.153Z,9.50
2019-04-28T10:41:57.859Z,10.00
2019-04-28T10:44:30.269Z,10.40
2019-04-28T10:47:03.857Z,10.90
2019-04-28T10:49:34.154Z,11.10
2019-04-28T10:52:04.921Z,11.20
2019-04-28T10:54:35.508Z,11.60
2019-04-28T10:57:06.006Z,11.60
2019-04-28T11:03:00.488Z,10.80
2019-04-28T11:05:49.294Z,10.40
2019-04-28T11:08:38.283Z,10.40
2019-04-28T11:11:16.759Z,10.30
2019-04-28T11:13:51.648Z,10.10
2019-04-28T11:16:25.767Z,9.90
2019-04-28T11:19:14.752Z,9.80
2019-04-28T11:21:46.298Z,9.80
2019-04-28T11:24:28.433Z,9.80
2019-04-28T11:27:00.748Z,9.60
2019-04-28T11:29:35.218Z,9.40
2019-04-28T11:32:11.547Z,9.40
2019-04-28T11:35:20.860Z,9.50
2019-04-28T11:37:42.894Z,9.50
2019-04-28T11:40:27.130Z,9.40
2019-04-28T11:42:59.775Z,9.30
2019-04-28T11:45:33.619Z,9.20
2019-04-28T11:48:10.506Z,9.20
2019-04-28T11:50:53.370Z,9.30
2019-04-28T11:53:30.150Z,9.20
2019-04-28T11:56:00.840Z,9.10
2019-04-28T11:58:34.301Z,9.00
2019-04-28T12:01:06.502Z,9.00
2019-04-28T12:03:37.421Z,8.80
2019-04-28T12:06:11.095Z,8.90
2019-04-28T12:08:44.936Z,9.10
2019-04-28T12:11:31.193Z,9.40
2019-04-28T12:14:34.863Z,9.90
2019-04-28T12:17:24.156Z,10.50
2019-04-28T12:20:02.942Z,10.60
2019-04-28T12:22:45.002Z,10.60
2019-04-28T12:25:16.628Z,10.70
2019-04-28T12:27:58.156Z,10.70
2019-04-28T12:30:30.045Z,10.70
2019-04-28T12:33:01.100Z,10.90
2019-04-28T12:35:33.239Z,11.10
2019-04-28T12:38:19.338Z,11.50
2019-04-28T12:41:00.345Z,11.50
2019-04-28T12:43:31.501Z,11.20
2019-04-28T12:46:03.619Z,11.00
2019-04-28T12:48:38.114Z,10.80
2019-04-28T12:51:15.207Z,10.60
2019-04-28T12:54:05.510Z,10.50
2019-04-28T12:56:44.977Z,10.60
2019-04-28T13:03:31.913Z,11.00
2019-04-28T13:06:08.799Z,11.20
2019-04-28T13:08:39.529Z,11.40
2019-04-28T13:11:16.893Z,11.70
2019-04-28T13:13:47.986Z,11.80
2019-04-28T13:16:19.176Z,11.90
2019-04-28T13:18:53.243Z,12.00
2019-04-28T13:21:24.048Z,12.10
2019-04-28T13:23:56.320Z,12.40
2019-04-28T13:26:33.354Z,12.60
2019-04-28T13:29:10.531Z,12.50
2019-04-28T13:31:46.013Z,12.70
2019-04-28T13:34:21.747Z,12.70
2019-04-28T13:36:53.229Z,12.90
2019-04-28T13:39:32.550Z,12.80
2019-04-28T13:42:03.569Z,12.70
2019-04-28T13:44:54.442Z,12.50
2019-04-28T13:47:28.383Z,12.50
2019-04-28T13:50:22.353Z,12.40
2019-04-28T13:52:53.910Z,12.60
2019-04-28T13:55:57.177Z,12.70
2019-04-28T13:58:45.540Z,13.00
2019-04-28T14:01:23.968Z,13.10
2019-04-28T14:04:08.957Z,13.50
2019-04-28T14:06:43.668Z,13.50
2019-04-28T14:09:22.598Z,13.30
2019-04-28T14:11:53.835Z,13.40
2019-04-28T14:14:33.672Z,13.70
2019-04-28T14:17:22.453Z,13.90
2019-04-28T14:20:00.233Z,14.20
2019-04-28T14:22:30.872Z,13.80
2019-04-28T14:25:15.213Z,13.50
2019-04-28T14:27:48.572Z,13.30
2019-04-28T14:30:29.693Z,13.10
2019-04-28T14:33:00.895Z,13.20
2019-04-28T14:35:35.577Z,13.20
2019-04-28T14:38:12.042Z,13.30
2019-04-28T14:43:46.447Z,13.50
2019-04-28T14:46:16.999Z,13.20
2019-04-28T14:48:47.714Z,13.30
2019-04-28T14:51:18.273Z,13.50
2019-04-28T14:53:49.034Z,13.50
2019-04-28T14:56:20.430Z,13.40
2019-04-28T14:58:51.264Z,13.10
2019-04-28T15:13:33.930Z,12.40
2019-04-28T15:16:13.571Z,12.10
2019-04-28T15:18:45.055Z,12.10
2019-04-28T15:21:21.407Z,12.30
2019-04-28T15:23:56.200Z,12.40
2019-04-28T15:26:26.956Z,12.30
2019-04-28T15:28:57.876Z,12.30
2019-04-28T15:31:28.765Z,12.30
2019-04-28T15:33:59.386Z,12.30
2019-04-28T15:36:30.414Z,12.30
2019-04-28T15:39:03.551Z,12.20
2019-04-28T15:41:34.404Z,12.10
2019-04-28T15:44:07.852Z,12.10
2019-04-28T15:46:43.427Z,12.00
2019-04-28T15:49:17.974Z,12.10
2019-04-28T15:51:49.381Z,12.00
2019-04-28T15:54:20.095Z,12.00
2019-04-28T15:56:54.169Z,12.10
2019-04-28T15:59:27.602Z,12.20
2019-04-28T16:01:58.476Z,12.30
2019-04-28T16:04:31.257Z,12.40
2019-04-28T16:07:02.157Z,12.40
2019-04-28T16:09:41.039Z,12.50
2019-04-28T16:12:15.269Z,12.70
2019-04-28T16:14:46.077Z,12.80
2019-04-28T16:17:16.606Z,12.90
2019-04-28T16:19:47.399Z,12.90
2019-04-28T16:22:18.069Z,12.80
2019-04-28T16:24:49.011Z,12.70
2019-04-28T16:27:19.601Z,12.70
2019-04-28T16:29:50.564Z,12.60
2019-04-28T16:32:25.173Z,12.50
2019-04-28T16:34:55.805Z,12.50
2019-04-28T16:37:38.535Z,12.30
2019-04-28T16:40:01.708Z,12.10
2019-04-28T16:42:35.687Z,12.00
2019-04-28T16:45:13.162Z,11.80
2019-04-28T16:47:46.060Z,11.60
2019-04-28T16:50:16.512Z,11.50
2019-04-28T16:52:47.304Z,11.30
2019-04-28T16:55:21.709Z,11.30
2019-04-28T16:58:19.537Z,11.20
2019-04-28T17:03:12.716Z,11.00
2019-04-28T17:05:43.396Z,10.90
2019-04-28T17:08:25.543Z,10.70
2019-04-28T17:10:58.755Z,10.70
2019-04-28T17:13:29.269Z,10.80
2019-04-28T17:15:59.762Z,10.80
2019-04-28T17:18:31.409Z,10.80
2019-04-28T17:21:01.986Z,10.80
2019-04-28T17:23:32.622Z,10.80
2019-04-28T17:28:39.628Z,10.70
2019-04-28T17:31:10.790Z,10.70
2019-04-28T17:33:41.251Z,10.70
2019-04-28T17:36:11.743Z,10.60
2019-04-28T17:38:42.428Z,10.70
2019-04-28T17:45:00.501Z,10.70
2019-04-28T17:51:19.934Z,10.40
2019-04-28T17:57:50.634Z,10.20
2019-04-28T18:07:38.312Z,9.90
2019-04-28T18:14:09.031Z,9.70
2019-04-28T18:23:58.786Z,9.20
2019-04-28T18:26:29.169Z,9.10
2019-04-28T18:28:59.481Z,9.00
2019-04-28T18:31:51.616Z,8.90
2019-04-28T18:34:40.135Z,8.80
2019-04-28T18:37:41.155Z,8.70
2019-04-28T18:40:28.483Z,8.60
2019-04-28T18:43:05.710Z,8.60
2019-04-28T18:45:35.927Z,8.50
2019-04-28T18:48:06.374Z,8.50
2019-04-28T18:50:36.678Z,8.40
2019-04-28T18:53:07.023Z,8.30
2019-04-28T18:55:37.234Z,8.40
2019-04-28T18:58:07.487Z,8.30
2019-04-28T19:03:00.500Z,8.30
2019-04-28T19:05:33.704Z,8.20
2019-04-28T19:08:29.005Z,8.20
2019-04-28T19:11:09.966Z,8.10
2019-04-28T19:13:45.307Z,8.00
2019-04-28T19:16:30.386Z,8.00
2019-04-28T19:19:02.658Z,7.90
2019-04-28T19:21:33.103Z,7.90
2019-04-28T19:24:06.559Z,7.90
2019-04-28T19:26:43.249Z,7.80
2019-04-28T19:29:18.138Z,7.80
2019-04-28T19:31:48.653Z,7.80
2019-04-28T19:34:21.866Z,7.80
2019-04-28T19:36:52.242Z,7.80
2019-04-28T19:39:22.536Z,7.80
2019-04-28T19:41:52.831Z,7.80
2019-04-28T19:44:24.534Z,7.80
2019-04-28T19:46:54.960Z,7.80
2019-04-28T19:49:28.258Z,7.80
2019-04-28T19:51:59.776Z,7.80
2019-04-28T19:54:34.459Z,7.80
2019-04-28T19:57:17.917Z,7.80
2019-04-28T20:00:09.103Z,7.80
2019-04-28T20:02:39.422Z,7.80
2019-04-28T20:05:10.196Z,7.80
2019-04-28T20:07:41.093Z,7.80
2019-04-28T20:10:11.498Z,7.70
2019-04-28T20:12:48.918Z,7.70
2019-04-28T20:15:19.308Z,7.70
2019-04-28T20:17:49.864Z,7.60
2019-04-28T20:20:21.633Z,7.60
2019-04-28T20:22:52.032Z,7.60
2019-04-28T20:25:22.576Z,7.50
2019-04-28T20:27:52.793Z,7.50
2019-04-28T20:30:23.615Z,7.50
2019-04-28T20:33:06.566Z,7.50
2019-04-28T20:35:29.869Z,7.40
2019-04-28T20:38:10.711Z,7.40
2019-04-28T20:40:50.006Z,7.40
2019-04-28T20:43:21.690Z,7.30
2019-04-28T20:45:55.205Z,7.20
2019-04-28T20:48:28.922Z,7.20
2019-04-28T20:50:59.608Z,7.10
2019-04-28T20:53:29.970Z,7.10
2019-04-28T20:56:00.643Z,7.10
2019-04-28T20:58:31.735Z,7.00
2019-04-28T21:02:58.302Z,6.90
2019-04-28T21:05:29.094Z,6.80
2019-04-28T21:08:00.879Z,6.80
2019-04-28T21:10:38.089Z,6.70
2019-04-28T21:13:04.071Z,6.60
2019-04-28T21:15:37.129Z,6.50
2019-04-28T21:18:07.659Z,6.50
2019-04-28T21:20:41.253Z,6.50
2019-04-28T21:23:11.773Z,6.40
2019-04-28T21:25:42.450Z,6.40
2019-04-28T21:28:12.918Z,6.30
2019-04-28T21:30:43.952Z,6.30
2019-04-28T21:33:14.407Z,6.30
2019-04-28T21:35:50.848Z,6.20
2019-04-28T21:38:26.103Z,6.20
2019-04-28T21:40:56.969Z,6.20
2019-04-28T21:43:36.279Z,6.10
2019-04-28T21:46:25.445Z,6.10
2019-04-28T21:49:23.623Z,6.00
2019-04-28T21:51:54.022Z,6.00
2019-04-28T21:54:24.370Z,5.90
2019-04-28T21:56:54.931Z,5.90
2019-04-28T21:59:25.360Z,5.90
2019-04-28T22:01:56.046Z,5.90
2019-04-28T22:04:26.414Z,5.80
2019-04-28T22:07:00.220Z,5.90
2019-04-28T22:09:37.337Z,5.90
2019-04-28T22:12:11.201Z,5.80
2019-04-28T22:14:41.412Z,5.80
2019-04-28T22:17:11.626Z,5.80
2019-04-28T22:19:41.922Z,5.80
2019-04-28T22:22:13.253Z,5.80
2019-04-28T22:24:56.580Z,5.70
2019-04-28T22:27:42.272Z,5.70
2019-04-28T22:30:15.594Z,5.70
2019-04-28T22:32:52.849Z,5.70
2019-04-28T22:35:23.984Z,5.70
2019-04-28T22:37:54.278Z,5.70
2019-04-28T22:40:24.410Z,5.70
2019-04-28T22:42:54.726Z,5.60
2019-04-28T22:45:25.201Z,5.60
2019-04-28T22:47:56.595Z,5.60
2019-04-28T22:50:39.960Z,5.60
2019-04-28T22:53:11.026Z,5.60
2019-04-28T22:55:49.893Z,5.50
2019-04-28T22:58:36.232Z,5.40
2019-04-28T23:03:12.634Z,5.40
2019-04-28T23:05:43.139Z,5.30
2019-04-28T23:08:13.402Z,5.30
2019-04-28T23:10:43.829Z,5.20
2019-04-28T23:13:15.196Z,5.10
2019-04-28T23:15:45.789Z,5.10
2019-04-28T23:18:19.562Z,5.10
2019-04-28T23:20:52.185Z,5.10
2019-04-28T23:23:22.823Z,5.00
2019-04-28T23:25:56.036Z,5.00
2019-04-28T23:28:27.683Z,5.00
2019-04-28T23:31:01.216Z,4.90
2019-04-28T23:33:34.105Z,4.90
2019-04-28T23:36:04.482Z,4.90
2019-04-28T23:38:34.898Z,4.90
2019-04-28T23:41:22.442Z,4.90
2019-04-28T23:43:55.365Z,4.80
2019-04-28T23:46:44.640Z,4.80
2019-04-28T23:49:14.998Z,4.70
2019-04-28T23:51:52.283Z,4.60
2019-04-28T23:54:22.875Z,4.60
2019-04-28T23:56:53.037Z,4.60
